This is the latest recevied weather packets stored in our database for station/object IN3ISU-13. If no packets are shown the sender has not sent any weather packets the latest 10 day(s).
| Time | Temp. | Humidity | Pressure | Rain* | Wind** | Luminosity | Snow |
|---|---|---|---|---|---|---|---|
| 1787851802 | 29.44° C | 41% | 1018 hPa | 0 mm | - | - | - |
| 1787848202 | 30.56° C | 37% | 1017 hPa | 0 mm | - | - | - |
| 1787844602 | 31.11° C | 36% | 1017 hPa | 0 mm | - | - | - |
| 1787828403 | 27.78° C | 49% | 1018 hPa | 0 mm | - | - | - |
| 1787826602 | 27.22° C | 52% | 1018 hPa | 0 mm | - | - | - |
| 1787824802 | 26.67° C | 57% | 1018 hPa | 0 mm | - | - | - |
| 1787819402 | 23.89° C | 71% | 1019 hPa | 0 mm | - | - | - |
| 1787817603 | 23.89° C | 67% | 1019 hPa | 0 mm | - | - | - |
| 1787815802 | 23.33° C | 69% | 1019 hPa | 0 mm | - | - | - |
| 1787814002 | 22.78° C | 71% | 1019 hPa | 0 mm | - | - | - |
| 1787812202 | 22.22° C | 72% | 1019 hPa | 0 mm | - | - | - |
| 1787808602 | 21.11° C | 68% | 1020 hPa | 0 mm | - | - | - |
| 1787806803 | 21.11° C | 67% | 1020 hPa | 0 mm | - | - | - |
| 1787803202 | 21.11° C | 68% | 1019 hPa | 0 mm | - | - | - |
| 1787801403 | 21.67° C | 70% | 1019 hPa | 0 mm | - | - | - |
| 1787799603 | 21.67° C | 76% | 1019 hPa | 0 mm | - | - | - |
| 1787797802 | 21.67° C | 73% | 1018 hPa | 0 mm | - | - | - |
| 1787796003 | 21.67° C | 67% | 1019 hPa | 0 mm | - | - | - |
| 1787794202 | 22.22° C | 68% | 1019 hPa | 0 mm | - | - | - |
| 1787792402 | 22.22° C | 61% | 1019 hPa | 0 mm | - | - | - |
| 1787790602 | 22.22° C | 56% | 1019 hPa | 0 mm | - | - | - |
* Rain latest hour (hover to see other rain measurements)
** Current wind speed in m/s (hover to see current wind gust speed)